createdAt,value
2022-12-23T00:01:28.679Z,27.30
2022-12-23T00:03:31.681Z,29.42
2022-12-23T00:05:39.758Z,26.92
2022-12-23T00:07:41.296Z,24.98
2022-12-23T00:09:42.842Z,24.10
2022-12-23T00:12:04.305Z,24.58
2022-12-23T00:14:24.130Z,24.88
2022-12-23T00:18:27.235Z,21.25
2022-12-23T00:20:28.775Z,24.52
2022-12-23T00:22:48.880Z,23.40
2022-12-23T00:24:50.410Z,27.00
2022-12-23T00:26:51.929Z,25.25
2022-12-23T00:28:56.010Z,25.85
2022-12-23T00:31:05.740Z,24.17
2022-12-23T00:35:08.876Z,21.15
2022-12-23T00:37:10.367Z,24.10
2022-12-23T00:39:31.755Z,23.73
2022-12-23T00:41:52.077Z,26.17
2022-12-23T00:43:53.592Z,25.42
2022-12-23T00:45:55.197Z,25.65
2022-12-23T00:48:15.196Z,27.30
2022-12-23T00:50:16.847Z,25.95
2022-12-23T00:52:18.304Z,22.40
2022-12-23T00:54:19.839Z,24.13
2022-12-23T00:56:21.391Z,24.25
2022-12-23T00:58:22.893Z,26.73
2022-12-23T01:00:44.769Z,30.67
2022-12-23T01:03:04.907Z,24.33
2022-12-23T01:05:25.141Z,32.22
2022-12-23T01:07:26.623Z,26.77
2022-12-23T01:09:28.326Z,20.63
2022-12-23T01:11:29.850Z,22.67
2022-12-23T01:13:31.986Z,31.38
2022-12-23T01:15:34.025Z,22.92
2022-12-23T01:17:35.521Z,25.13
2022-12-23T01:19:37.176Z,23.52
2022-12-23T01:21:38.755Z,25.05
2022-12-23T01:23:40.344Z,21.40
2022-12-23T01:25:41.883Z,28.27
2022-12-23T01:27:43.407Z,25.73
2022-12-23T01:29:45.989Z,25.08
2022-12-23T01:31:47.587Z,22.10
2022-12-23T01:33:49.218Z,23.55
2022-12-23T01:35:50.829Z,21.38
2022-12-23T01:37:52.329Z,22.90
2022-12-23T01:39:53.829Z,22.67
2022-12-23T01:42:13.695Z,29.75
2022-12-23T01:44:52.412Z,24.13
2022-12-23T01:46:53.921Z,13.95
2022-12-23T01:48:56.740Z,21.45
2022-12-23T01:51:04.527Z,23.30
2022-12-23T01:53:15.079Z,23.58
2022-12-23T01:55:21.376Z,21.58
2022-12-23T01:57:24.232Z,33.72
2022-12-23T01:59:44.470Z,25.83
2022-12-23T02:02:21.222Z,26.38
2022-12-23T02:04:24.855Z,26.38
2022-12-23T02:06:48.074Z,28.92
2022-12-23T02:09:18.462Z,28.00
2022-12-23T02:11:44.727Z,25.90
2022-12-23T02:14:22.292Z,23.20
2022-12-23T02:16:24.164Z,25.95
2022-12-23T02:18:53.385Z,28.23
2022-12-23T02:21:05.677Z,30.67
2022-12-23T02:23:17.480Z,24.40
2022-12-23T02:25:40.875Z,26.67
2022-12-23T02:28:10.385Z,26.90
2022-12-23T02:30:43.375Z,25.77
2022-12-23T02:32:58.268Z,25.23
2022-12-23T02:35:29.012Z,27.80
2022-12-23T02:38:13.610Z,23.83
2022-12-23T02:40:22.636Z,24.85
2022-12-23T02:42:31.837Z,28.85
2022-12-23T02:44:39.783Z,28.38
2022-12-23T02:46:51.776Z,28.42
2022-12-23T02:49:12.568Z,29.10
2022-12-23T02:51:15.753Z,29.63
2022-12-23T02:53:24.414Z,30.80
2022-12-23T02:55:32.270Z,28.00
2022-12-23T02:57:38.588Z,29.20
2022-12-23T02:59:45.794Z,28.23
2022-12-23T03:01:48.025Z,30.73
2022-12-23T03:03:51.137Z,31.33
2022-12-23T03:05:54.406Z,34.90
2022-12-23T03:08:00.150Z,32.72
2022-12-23T03:10:18.708Z,31.92
2022-12-23T03:12:39.311Z,34.47
2022-12-23T03:14:51.037Z,31.23
2022-12-23T03:17:01.588Z,28.83
2022-12-23T03:19:07.527Z,29.27
2022-12-23T03:21:15.036Z,29.95
2022-12-23T03:23:28.309Z,30.52
2022-12-23T03:25:37.960Z,29.15
2022-12-23T03:28:13.392Z,26.80
2022-12-23T03:30:20.746Z,29.73
2022-12-23T03:32:24.687Z,27.88
2022-12-23T03:34:30.197Z,30.58
2022-12-23T03:36:53.363Z,28.88
2022-12-23T03:38:56.530Z,29.45
2022-12-23T03:41:02.579Z,32.72
2022-12-23T03:43:18.307Z,31.08
2022-12-23T03:45:38.524Z,33.45
2022-12-23T03:47:49.019Z,29.70
2022-12-23T03:50:00.478Z,32.78
2022-12-23T03:52:08.540Z,30.40
2022-12-23T03:54:15.190Z,29.13
2022-12-23T03:56:26.073Z,29.10
2022-12-23T03:58:46.487Z,29.38
2022-12-23T04:01:12.865Z,31.02
2022-12-23T04:03:31.268Z,31.23
2022-12-23T04:05:36.627Z,33.05
2022-12-23T04:07:43.168Z,33.90
2022-12-23T04:09:45.027Z,39.15
2022-12-23T04:11:46.663Z,41.97
2022-12-23T04:13:48.558Z,44.08
2022-12-23T04:15:50.363Z,42.90
2022-12-23T04:17:54.235Z,43.35
2022-12-23T04:19:55.935Z,45.38
2022-12-23T04:21:57.937Z,44.67
2022-12-23T04:23:59.419Z,48.40
2022-12-23T04:26:00.897Z,45.35
2022-12-23T04:28:02.468Z,45.55
2022-12-23T04:30:05.869Z,47.35
2022-12-23T04:32:08.021Z,46.45
2022-12-23T04:34:09.560Z,47.50
2022-12-23T04:36:11.568Z,49.03
2022-12-23T04:38:13.029Z,47.42
2022-12-23T04:40:14.599Z,48.75
2022-12-23T04:42:16.105Z,47.65
2022-12-23T04:44:17.637Z,49.60
2022-12-23T04:46:19.405Z,46.83
2022-12-23T04:48:21.015Z,44.58
2022-12-23T04:50:22.532Z,45.92
2022-12-23T04:52:24.114Z,44.30
2022-12-23T04:54:25.822Z,43.72
2022-12-23T04:56:27.338Z,44.60
2022-12-23T04:58:28.828Z,44.25
2022-12-23T05:00:35.501Z,46.58
2022-12-23T05:02:40.673Z,46.47
2022-12-23T05:04:42.344Z,54.35
2022-12-23T05:06:43.894Z,55.85
2022-12-23T05:08:45.380Z,53.35
2022-12-23T05:10:46.869Z,40.63
2022-12-23T05:12:48.357Z,43.45
2022-12-23T05:14:49.816Z,39.60
2022-12-23T05:16:51.577Z,42.60
2022-12-23T05:18:53.145Z,42.97
2022-12-23T05:20:54.732Z,41.50
2022-12-23T05:22:56.226Z,47.55
2022-12-23T05:24:57.728Z,46.75
2022-12-23T05:27:00.411Z,42.55
2022-12-23T05:29:02.160Z,44.67
2022-12-23T05:31:06.600Z,42.95
2022-12-23T05:33:08.253Z,42.45
2022-12-23T05:35:10.595Z,42.67
2022-12-23T05:37:12.076Z,40.50
2022-12-23T05:39:13.756Z,41.60
2022-12-23T05:41:16.864Z,39.10
2022-12-23T05:43:18.956Z,38.25
2022-12-23T05:45:20.801Z,44.08
2022-12-23T05:47:22.359Z,43.70
2022-12-23T05:49:25.372Z,41.40
2022-12-23T05:51:26.870Z,45.65
2022-12-23T05:53:28.336Z,40.88
2022-12-23T05:55:29.920Z,40.88
2022-12-23T05:57:32.201Z,42.33
2022-12-23T05:59:33.691Z,43.45
2022-12-23T06:01:35.334Z,46.03
2022-12-23T06:03:36.948Z,49.00
2022-12-23T06:05:39.626Z,47.28
2022-12-23T06:07:41.239Z,46.10
2022-12-23T06:09:42.785Z,43.97
2022-12-23T06:11:44.273Z,51.80
2022-12-23T06:13:45.752Z,59.95
2022-12-23T06:15:47.483Z,50.22
2022-12-23T06:17:49.517Z,44.33
2022-12-23T06:19:51.011Z,47.10
2022-12-23T06:21:52.577Z,40.65
2022-12-23T06:23:54.129Z,44.38
2022-12-23T06:26:02.678Z,44.78
2022-12-23T06:28:04.352Z,45.30
2022-12-23T06:30:06.792Z,53.78
2022-12-23T06:32:08.534Z,59.50
2022-12-23T06:34:10.048Z,51.78
2022-12-23T06:36:11.538Z,44.10
2022-12-23T06:38:13.109Z,59.80
2022-12-23T06:40:14.675Z,50.13
2022-12-23T06:42:16.178Z,45.08
2022-12-23T06:44:17.881Z,51.60
2022-12-23T06:46:19.492Z,43.90
2022-12-23T06:48:21.120Z,50.72
2022-12-23T06:50:22.605Z,47.83
2022-12-23T06:52:24.081Z,47.78
2022-12-23T06:54:25.708Z,51.35
2022-12-23T06:56:27.487Z,47.72
2022-12-23T06:58:29.486Z,44.45
2022-12-23T07:00:31.077Z,46.00
2022-12-23T07:02:32.901Z,43.80
2022-12-23T07:04:34.469Z,46.85
2022-12-23T07:06:36.063Z,42.30
2022-12-23T07:08:37.620Z,44.83
2022-12-23T07:10:39.070Z,50.30
2022-12-23T07:12:43.565Z,59.00
2022-12-23T07:14:49.064Z,54.88
2022-12-23T07:16:50.634Z,50.25
2022-12-23T07:18:52.353Z,46.50
2022-12-23T07:20:53.791Z,42.20
2022-12-23T07:22:55.962Z,41.97
2022-12-23T07:24:57.530Z,41.05
2022-12-23T07:26:59.034Z,33.17
2022-12-23T07:29:01.663Z,39.92
2022-12-23T07:31:06.304Z,37.72
2022-12-23T07:33:07.783Z,33.42
2022-12-23T07:35:09.463Z,39.17
2022-12-23T07:37:10.951Z,42.08
2022-12-23T07:39:12.577Z,43.33
2022-12-23T07:41:14.193Z,39.55
2022-12-23T07:43:15.690Z,43.20
2022-12-23T07:45:17.178Z,43.72
2022-12-23T07:47:18.648Z,39.45
2022-12-23T07:49:20.120Z,39.90
2022-12-23T07:51:21.614Z,43.80
2022-12-23T07:53:23.106Z,44.15
2022-12-23T07:55:24.815Z,40.65
2022-12-23T07:57:26.417Z,36.28
2022-12-23T07:59:27.975Z,37.22
2022-12-23T08:01:29.582Z,33.67
2022-12-23T08:03:31.949Z,31.55
2022-12-23T08:05:33.569Z,29.48
2022-12-23T08:07:35.184Z,27.83
2022-12-23T08:09:36.657Z,28.10
2022-12-23T08:11:38.147Z,24.73
2022-12-23T08:13:41.652Z,24.08
2022-12-23T08:15:43.157Z,23.70
2022-12-23T08:17:44.661Z,21.60
2022-12-23T08:19:46.118Z,25.98
2022-12-23T08:21:47.568Z,19.30
2022-12-23T08:23:49.194Z,19.30
2022-12-23T08:26:01.778Z,18.08
2022-12-23T08:28:03.393Z,18.88
2022-12-23T08:30:05.563Z,23.00
2022-12-23T08:32:07.433Z,19.52
2022-12-23T08:34:09.153Z,23.40
2022-12-23T08:36:20.796Z,18.95
2022-12-23T08:38:24.440Z,17.85
2022-12-23T08:40:25.902Z,15.88
2022-12-23T08:42:27.443Z,15.15
2022-12-23T08:44:29.805Z,16.05
2022-12-23T08:46:31.453Z,15.18
2022-12-23T08:48:34.221Z,15.30
2022-12-23T08:50:41.436Z,16.15
2022-12-23T08:52:42.896Z,13.90
2022-12-23T08:54:44.511Z,14.27
2022-12-23T08:56:46.034Z,16.52
2022-12-23T08:58:51.104Z,24.35
2022-12-23T09:00:52.692Z,17.40
2022-12-23T09:02:54.358Z,15.73
2022-12-23T09:04:55.963Z,14.23
2022-12-23T09:06:57.477Z,14.93
2022-12-23T09:08:59.256Z,13.25
2022-12-23T09:11:01.063Z,14.68
2022-12-23T09:13:02.559Z,13.75
2022-12-23T09:15:05.932Z,14.00
2022-12-23T09:17:07.966Z,12.32
2022-12-23T09:19:09.616Z,13.20
2022-12-23T09:21:14.476Z,14.60
2022-12-23T09:23:15.970Z,11.98
2022-12-23T09:25:17.479Z,11.07
2022-12-23T09:27:19.076Z,12.05
2022-12-23T09:29:20.573Z,12.23
2022-12-23T09:31:23.223Z,13.63
2022-12-23T09:33:24.951Z,12.88
2022-12-23T09:35:26.466Z,12.13
2022-12-23T09:37:27.975Z,11.50
2022-12-23T09:39:29.497Z,12.88
2022-12-23T09:41:52.269Z,12.75
2022-12-23T09:44:15.235Z,14.18
2022-12-23T09:46:28.587Z,13.52
2022-12-23T09:48:40.734Z,16.27
2022-12-23T09:50:43.445Z,14.10
2022-12-23T09:52:57.310Z,13.18
2022-12-23T09:54:58.998Z,10.73
2022-12-23T09:57:08.995Z,13.50
2022-12-23T09:59:39.407Z,20.58
2022-12-23T10:02:13.312Z,29.42
2022-12-23T10:04:34.327Z,16.25
2022-12-23T10:06:38.569Z,19.13
2022-12-23T10:08:44.944Z,22.25
2022-12-23T10:11:00.701Z,21.50
2022-12-23T10:13:06.041Z,20.23
2022-12-23T10:15:21.623Z,19.85
2022-12-23T10:17:37.030Z,14.82
2022-12-23T10:19:43.076Z,17.65
2022-12-23T10:22:03.432Z,18.77
2022-12-23T10:24:16.097Z,21.55
2022-12-23T10:26:23.697Z,23.85
2022-12-23T10:28:29.730Z,17.00
2022-12-23T10:33:19.389Z,29.67
2022-12-23T10:35:26.620Z,20.98
2022-12-23T10:37:28.069Z,20.30
2022-12-23T10:40:10.054Z,21.98
2022-12-23T10:42:29.859Z,18.85
2022-12-23T10:46:57.165Z,21.20
2022-12-23T10:49:11.250Z,19.27
2022-12-23T10:51:21.872Z,22.83
2022-12-23T10:53:43.691Z,23.08
2022-12-23T10:55:45.497Z,31.65
2022-12-23T10:57:47.154Z,27.63
2022-12-23T10:59:48.671Z,15.85
2022-12-23T11:01:56.127Z,16.27
2022-12-23T11:04:07.754Z,13.70
2022-12-23T11:06:10.946Z,12.73
2022-12-23T11:08:12.469Z,12.63
2022-12-23T11:10:19.887Z,11.45
2022-12-23T11:12:46.321Z,11.98
2022-12-23T11:14:52.396Z,13.10
2022-12-23T11:16:54.064Z,13.93
2022-12-23T11:18:55.539Z,14.52
2022-12-23T11:21:05.669Z,12.30
2022-12-23T11:23:24.545Z,15.27
2022-12-23T11:25:29.051Z,12.73
2022-12-23T11:27:30.660Z,13.02
2022-12-23T11:29:35.646Z,13.25
2022-12-23T11:31:37.683Z,14.25
2022-12-23T11:33:54.737Z,13.55
2022-12-23T11:36:14.960Z,13.38
2022-12-23T11:38:16.549Z,13.45
2022-12-23T11:40:38.750Z,13.48
2022-12-23T11:42:41.148Z,13.88
2022-12-23T11:44:45.997Z,14.98
2022-12-23T11:46:47.615Z,15.90
2022-12-23T11:48:54.531Z,14.75
2022-12-23T11:51:03.930Z,15.90
2022-12-23T11:53:23.766Z,17.25
2022-12-23T11:57:46.418Z,15.38
2022-12-23T11:59:49.973Z,15.45
2022-12-23T12:01:51.866Z,17.25
2022-12-23T12:04:02.695Z,14.70
2022-12-23T12:06:06.176Z,18.17
2022-12-23T12:08:14.735Z,23.98
2022-12-23T12:10:25.881Z,15.65
2022-12-23T12:12:28.902Z,16.52
2022-12-23T12:14:44.112Z,15.40
2022-12-23T12:16:51.817Z,15.98
2022-12-23T12:18:57.668Z,16.75
2022-12-23T12:21:04.446Z,15.23
2022-12-23T12:23:26.732Z,18.85
2022-12-23T12:25:49.905Z,21.35
2022-12-23T12:28:01.588Z,18.58
2022-12-23T12:30:08.970Z,19.08
2022-12-23T12:32:44.557Z,18.08
2022-12-23T12:34:59.193Z,19.75
2022-12-23T12:37:22.396Z,15.43
2022-12-23T12:39:33.614Z,17.38
2022-12-23T12:41:38.664Z,15.73
2022-12-23T12:43:47.086Z,15.55
2022-12-23T12:46:07.887Z,19.77
2022-12-23T12:50:33.807Z,23.73
2022-12-23T12:52:40.679Z,20.80
2022-12-23T12:54:57.872Z,15.27
2022-12-23T12:56:59.952Z,13.57
2022-12-23T12:59:01.477Z,13.13
2022-12-23T13:01:18.669Z,13.85
2022-12-23T13:03:36.580Z,12.68
2022-12-23T13:06:00.633Z,11.70
2022-12-23T13:08:19.354Z,11.18
2022-12-23T13:10:26.833Z,10.63
2022-12-23T13:12:44.878Z,14.73
2022-12-23T13:15:10.579Z,17.42
2022-12-23T13:17:21.647Z,20.30
2022-12-23T13:19:48.863Z,14.65
2022-12-23T13:21:54.444Z,292.42
2022-12-23T13:24:10.496Z,46.00
2022-12-23T13:26:37.710Z,27.58
2022-12-23T13:28:51.314Z,25.48
2022-12-23T13:31:02.846Z,21.73
2022-12-23T13:33:33.284Z,21.30
2022-12-23T13:35:38.731Z,30.67
2022-12-23T13:38:07.895Z,30.75
2022-12-23T13:40:57.234Z,62.72
2022-12-23T13:43:09.310Z,19.40
2022-12-23T13:45:16.338Z,34.47
2022-12-23T13:47:57.264Z,77.53
2022-12-23T13:50:25.801Z,42.47
2022-12-23T13:52:33.040Z,82.03
2022-12-23T13:55:02.722Z,34.35
2022-12-23T13:58:01.495Z,21.13
2022-12-23T14:00:28.234Z,18.52
2022-12-23T14:02:41.834Z,18.52
2022-12-23T14:04:55.370Z,20.85
2022-12-23T14:07:18.008Z,32.35
2022-12-23T14:09:30.293Z,23.90
2022-12-23T14:11:33.467Z,31.75
2022-12-23T14:13:51.693Z,21.80
2022-12-23T14:16:09.163Z,22.60
2022-12-23T14:18:25.376Z,17.75
2022-12-23T14:20:29.640Z,15.02
2022-12-23T14:23:02.137Z,22.70
2022-12-23T14:25:43.820Z,36.88
2022-12-23T14:27:52.690Z,39.33
2022-12-23T14:30:03.150Z,45.30
2022-12-23T14:32:29.758Z,29.75
2022-12-23T14:34:33.439Z,28.42
2022-12-23T14:36:35.188Z,25.42
2022-12-23T14:38:36.794Z,33.47
2022-12-23T14:40:38.301Z,50.83
2022-12-23T14:42:42.947Z,32.50
2022-12-23T14:44:49.257Z,22.08
2022-12-23T14:46:50.948Z,17.88
2022-12-23T14:49:09.659Z,26.88
2022-12-23T14:51:14.014Z,21.60
2022-12-23T14:53:27.786Z,20.77
2022-12-23T14:55:31.582Z,19.55
2022-12-23T14:57:35.131Z,17.50
2022-12-23T15:00:00.936Z,17.05
2022-12-23T15:02:12.677Z,17.95
2022-12-23T15:04:16.304Z,15.23
2022-12-23T15:06:28.514Z,15.10
2022-12-23T15:08:41.995Z,18.70
2022-12-23T15:10:44.362Z,15.68
2022-12-23T15:12:59.359Z,18.48
2022-12-23T15:15:05.012Z,18.50
2022-12-23T15:17:31.617Z,27.55
2022-12-23T15:19:33.150Z,25.70
2022-12-23T15:21:36.214Z,34.50
2022-12-23T15:23:37.909Z,75.80
2022-12-23T15:25:44.432Z,89.65
2022-12-23T15:27:46.286Z,48.75
2022-12-23T15:29:50.878Z,38.58
2022-12-23T15:31:56.144Z,29.27
2022-12-23T15:34:03.993Z,30.08
2022-12-23T15:36:09.759Z,34.53
2022-12-23T15:38:15.621Z,37.40
2022-12-23T15:40:28.309Z,44.80
2022-12-23T15:42:31.792Z,38.40
2022-12-23T15:44:38.960Z,42.28
2022-12-23T15:46:40.847Z,35.35
2022-12-23T15:48:43.413Z,41.08
2022-12-23T15:50:44.994Z,57.22
2022-12-23T15:52:49.047Z,53.63
2022-12-23T15:55:25.005Z,65.88
2022-12-23T15:57:28.990Z,63.00
2022-12-23T15:59:37.640Z,53.50
2022-12-23T16:01:41.107Z,75.07
2022-12-23T16:03:50.577Z,65.75
2022-12-23T16:05:52.695Z,51.20
2022-12-23T16:08:28.191Z,67.28
2022-12-23T16:10:31.206Z,54.17
2022-12-23T16:12:34.460Z,40.97
2022-12-23T16:14:40.975Z,48.88
2022-12-23T16:16:43.811Z,77.03
2022-12-23T16:18:47.927Z,83.10
2022-12-23T16:20:53.690Z,108.53
2022-12-23T16:22:58.793Z,83.90
2022-12-23T16:25:03.377Z,63.45
2022-12-23T16:27:04.943Z,75.18
2022-12-23T16:29:06.648Z,94.10
2022-12-23T16:31:10.560Z,41.42
2022-12-23T16:33:41.934Z,75.03
2022-12-23T16:35:44.021Z,71.45
2022-12-23T16:37:50.868Z,79.88
2022-12-23T16:39:52.650Z,49.03
2022-12-23T16:41:54.174Z,62.92
2022-12-23T16:43:55.729Z,34.45
2022-12-23T16:45:58.152Z,57.72
2022-12-23T16:48:00.694Z,43.70
2022-12-23T16:50:02.214Z,33.67
2022-12-23T16:52:06.966Z,30.20
2022-12-23T16:54:17.384Z,36.30
2022-12-23T16:56:21.927Z,31.60
2022-12-23T16:58:23.722Z,26.83
2022-12-23T17:00:25.340Z,26.58
2022-12-23T17:02:28.718Z,26.42
2022-12-23T17:04:30.298Z,27.83
2022-12-23T17:06:31.918Z,35.22
2022-12-23T17:08:33.497Z,24.63
2022-12-23T17:10:35.742Z,26.90
2022-12-23T17:12:37.652Z,24.30
2022-12-23T17:14:39.338Z,27.13
2022-12-23T17:16:40.938Z,26.92
2022-12-23T17:18:42.550Z,24.52
2022-12-23T17:20:49.072Z,41.80
2022-12-23T17:22:55.478Z,34.35
2022-12-23T17:24:56.997Z,37.45
2022-12-23T17:26:58.681Z,37.80
2022-12-23T17:29:00.296Z,52.67
2022-12-23T17:31:02.114Z,44.45
2022-12-23T17:33:03.784Z,56.90
2022-12-23T17:35:05.599Z,36.80
2022-12-23T17:37:19.343Z,49.55
2022-12-23T17:39:21.930Z,49.22
2022-12-23T17:41:28.266Z,43.90
2022-12-23T17:43:29.787Z,35.28
2022-12-23T17:45:31.923Z,40.28
2022-12-23T17:47:33.597Z,38.75
2022-12-23T17:49:35.116Z,49.45
2022-12-23T17:51:39.498Z,48.33
2022-12-23T17:53:41.036Z,46.92
2022-12-23T17:55:42.558Z,52.22
2022-12-23T17:57:44.484Z,72.72
2022-12-23T17:59:48.260Z,64.82
2022-12-23T18:01:50.356Z,65.50
2022-12-23T18:03:52.767Z,46.75
2022-12-23T18:06:01.190Z,47.47
2022-12-23T18:08:04.033Z,45.88
2022-12-23T18:10:06.032Z,44.13
2022-12-23T18:12:24.981Z,46.53
2022-12-23T18:14:31.829Z,43.88
2022-12-23T18:16:33.437Z,46.00
2022-12-23T18:18:43.947Z,80.32
2022-12-23T18:20:51.119Z,84.95
2022-12-23T18:22:54.724Z,75.60
2022-12-23T18:24:59.406Z,57.63
2022-12-23T18:27:01.901Z,47.22
2022-12-23T18:29:03.576Z,45.15
2022-12-23T18:31:05.327Z,50.30
2022-12-23T18:33:11.526Z,50.95
2022-12-23T18:35:31.256Z,51.05
2022-12-23T18:37:32.780Z,44.75
2022-12-23T18:39:34.337Z,47.22
2022-12-23T18:41:35.883Z,44.03
2022-12-23T18:43:37.462Z,49.42
2022-12-23T18:45:42.018Z,56.95
2022-12-23T18:47:43.684Z,82.93
2022-12-23T18:49:45.307Z,82.82
2022-12-23T18:51:47.238Z,59.72
2022-12-23T18:53:49.329Z,53.97
2022-12-23T18:55:51.332Z,49.88
2022-12-23T18:57:53.108Z,52.08
2022-12-23T18:59:54.727Z,51.90
2022-12-23T19:01:56.679Z,50.63
2022-12-23T19:03:58.290Z,52.97
2022-12-23T19:06:06.613Z,55.00
2022-12-23T19:08:10.001Z,44.88
2022-12-23T19:10:19.382Z,53.38
2022-12-23T19:12:20.986Z,57.17
2022-12-23T19:14:22.595Z,49.22
2022-12-23T19:16:24.278Z,48.15
2022-12-23T19:18:26.064Z,55.30
2022-12-23T19:20:27.625Z,58.58
2022-12-23T19:22:29.127Z,49.60
2022-12-23T19:24:30.716Z,54.17
2022-12-23T19:26:32.277Z,51.95
2022-12-23T19:28:34.088Z,45.05
2022-12-23T19:30:35.882Z,52.75
2022-12-23T19:32:37.455Z,62.90
2022-12-23T19:34:38.980Z,54.53
2022-12-23T19:36:40.563Z,52.90
2022-12-23T19:38:43.578Z,44.95
2022-12-23T19:40:45.071Z,50.53
2022-12-23T19:42:46.650Z,47.42
2022-12-23T19:44:48.210Z,45.08
2022-12-23T19:46:49.781Z,52.65
2022-12-23T19:48:52.478Z,57.75
2022-12-23T19:51:05.725Z,69.38
2022-12-23T19:53:07.239Z,84.90
2022-12-23T19:55:10.198Z,67.47
2022-12-23T19:57:11.873Z,67.40
2022-12-23T19:59:13.452Z,57.15
2022-12-23T20:01:22.477Z,60.72
2022-12-23T20:03:24.083Z,77.07
2022-12-23T20:05:25.639Z,58.42
2022-12-23T20:07:27.144Z,55.72
2022-12-23T20:09:28.741Z,45.22
2022-12-23T20:11:33.234Z,48.95
2022-12-23T20:13:35.382Z,51.38
2022-12-23T20:15:36.978Z,48.78
2022-12-23T20:17:38.516Z,49.22
2022-12-23T20:19:45.884Z,46.70
2022-12-23T20:21:48.152Z,44.17
2022-12-23T20:23:49.994Z,42.97
2022-12-23T20:25:51.596Z,71.88
2022-12-23T20:27:53.095Z,51.25
2022-12-23T20:29:54.669Z,43.55
2022-12-23T20:31:56.219Z,38.30
2022-12-23T20:33:58.008Z,46.22
2022-12-23T20:35:59.637Z,48.00
2022-12-23T20:38:01.253Z,42.65
2022-12-23T20:40:02.970Z,42.88
2022-12-23T20:42:04.518Z,45.65
2022-12-23T20:46:27.687Z,44.97
2022-12-23T20:48:33.828Z,42.83
2022-12-23T20:50:42.310Z,47.85
2022-12-23T20:52:43.945Z,45.90
2022-12-23T20:54:45.581Z,50.78
2022-12-23T20:56:47.099Z,51.97
2022-12-23T20:58:54.774Z,47.47
2022-12-23T21:00:56.485Z,49.67
2022-12-23T21:02:58.087Z,48.80
2022-12-23T21:04:59.604Z,43.83
2022-12-23T21:07:01.199Z,43.03
2022-12-23T21:09:05.836Z,46.25
2022-12-23T21:11:07.685Z,42.25
2022-12-23T21:13:09.314Z,40.22
2022-12-23T21:15:11.206Z,39.72
2022-12-23T21:17:12.711Z,39.95
2022-12-23T21:19:17.074Z,42.08
2022-12-23T21:21:23.720Z,43.67
2022-12-23T21:23:25.371Z,40.40
2022-12-23T21:25:26.907Z,40.17
2022-12-23T21:27:28.397Z,45.63
2022-12-23T21:29:29.983Z,51.60
2022-12-23T21:31:33.311Z,81.32
2022-12-23T21:33:37.360Z,68.85
2022-12-23T21:35:38.929Z,48.47
2022-12-23T21:37:40.792Z,49.22
2022-12-23T21:39:42.297Z,49.88
2022-12-23T21:41:44.021Z,48.78
2022-12-23T21:43:45.760Z,51.58
2022-12-23T21:45:55.835Z,51.63
2022-12-23T21:47:57.356Z,48.28
2022-12-23T21:49:58.998Z,46.28
2022-12-23T21:52:00.517Z,47.85
2022-12-23T21:54:03.251Z,46.10
2022-12-23T21:56:10.558Z,49.72
2022-12-23T21:58:12.141Z,48.08
2022-12-23T22:00:13.867Z,46.70
2022-12-23T22:02:18.773Z,45.50
2022-12-23T22:04:20.470Z,43.50
2022-12-23T22:06:27.395Z,41.33
2022-12-23T22:08:29.008Z,44.28
2022-12-23T22:10:30.607Z,43.45
2022-12-23T22:12:32.145Z,41.30
2022-12-23T22:14:33.726Z,46.95
2022-12-23T22:16:36.560Z,42.95
2022-12-23T22:18:39.065Z,45.22
2022-12-23T22:20:46.015Z,46.40
2022-12-23T22:22:48.376Z,38.22
2022-12-23T22:24:49.948Z,43.58
2022-12-23T22:26:51.519Z,38.20
2022-12-23T22:28:58.026Z,40.67
2022-12-23T22:31:04.523Z,39.03
2022-12-23T22:33:07.933Z,39.80
2022-12-23T22:35:09.681Z,38.35
2022-12-23T22:37:11.183Z,38.13
2022-12-23T22:39:21.004Z,41.15
2022-12-23T22:41:24.588Z,38.00
2022-12-23T22:43:26.110Z,37.50
2022-12-23T22:45:27.702Z,34.60
2022-12-23T22:47:29.384Z,34.47
2022-12-23T22:49:31.061Z,33.28
2022-12-23T22:51:32.672Z,32.67
2022-12-23T22:53:34.291Z,31.50
2022-12-23T22:55:35.829Z,31.75
2022-12-23T22:57:37.374Z,31.80
2022-12-23T22:59:38.999Z,29.70
2022-12-23T23:01:40.616Z,29.42
2022-12-23T23:03:42.168Z,30.80
2022-12-23T23:05:43.683Z,31.52
2022-12-23T23:07:45.250Z,32.13
2022-12-23T23:09:46.807Z,30.75
2022-12-23T23:11:49.356Z,29.40
2022-12-23T23:13:50.974Z,30.05
2022-12-23T23:15:52.756Z,29.08
2022-12-23T23:17:55.874Z,28.65
2022-12-23T23:19:57.524Z,28.65
2022-12-23T23:21:59.055Z,24.90
2022-12-23T23:24:00.629Z,25.42
2022-12-23T23:26:02.508Z,25.92
2022-12-23T23:28:04.378Z,25.38
2022-12-23T23:30:06.733Z,24.50
2022-12-23T23:32:09.247Z,24.52
2022-12-23T23:34:11.885Z,23.83
2022-12-23T23:36:13.505Z,22.13
2022-12-23T23:38:15.112Z,26.58
2022-12-23T23:40:16.686Z,27.08
2022-12-23T23:42:18.318Z,26.77
2022-12-23T23:44:20.416Z,26.60
2022-12-23T23:46:22.077Z,27.63
2022-12-23T23:48:23.716Z,27.23
2022-12-23T23:50:25.283Z,29.08
2022-12-23T23:52:27.934Z,30.13
2022-12-23T23:54:29.454Z,28.42
2022-12-23T23:56:37.838Z,31.92
2022-12-23T23:58:40.691Z,29.65
